Tampa, FL (33647)

3:02 AM EDT en Septiembre 03, 2014 (GMT -0400)
West Meadows - New Tampa | Change Station
CLOSE
Current Station
Estación meteorológica personal
Location: Tampa, FL
Altura: 52 ft
Estaciones meteorológicas cercanas

Alt 52 ft 28.15 °N, 82.36 °W | Updated 4 minutes ago

Despejado
Despejado
75.0 ° F
Sensación térmica 75 ° F
N
0.0
Viento Variable Viento desde ENE

Hoy
Alta -- | Baja -- ° F
--% Posibilidad de precipitaciones
Ayer
Alta -- | Baja -- ° F
Precip. -- pul
7:08 AM 7:48 PM
Cuarto creciente, 59% visible
Presión 30.01 pul
Visibilidad 10.0 Millas
Nubes Despejado
Índice de calor 75 ° F
Punto de rocío 71 ° F
Humedad 87%
Precipitaciones 0.00 pul
Espesor de la nieve No disponible.
UV 0 de una escala de 12
Polen 5.20 de una escala de 12
Calidad del aire No disponible.
Flu Activity No disponible.
METAR KVDF 030655Z AUTO 00000KT 10SM CLR 24/22 A3001 RMK AO2

More Conditions Fewer Conditions

Presión 30.01 pul
Visibilidad 10.0 Millas
Nubes Despejado
Índice de calor 75 ° F
Punto de rocío 71 ° F
Humedad 87%
Precipitaciones 0.00 pul
Espesor de la nieve No disponible.
UV 0 de una escala de 12
Polen 5.20 de una escala de 12
Calidad del aire No disponible.
Flu Activity No disponible.
METAR KVDF 030655Z AUTO 00000KT 10SM CLR 24/22 A3001 RMK AO2

More Conditions Fewer Conditions

10-Day Weather Forecast

Almanac

Astronomía

Sep. 03, 2014 Salida Puesta
Hora real 7:08 AM EDT 7:48 PM EDT
Crepúsculo civil 6:45 AM EDT 8:11 PM EDT
Crepúsculo náutico 6:17 AM EDT 8:39 PM EDT
Crepúsculo astronómico 5:48 AM EDT 9:08 PM EDT
Luna 3:13 PM EDT 1:17 AM EDT
Horas de luz 13h 26m
Horas de luz
12h 39m
Tomorrow will be 1m 37s shorter.
Cuarto creciente, 59% of the Moon is Illuminated
Hoy
Cuarto creciente
Sep 8
Luna llena
Sep 15
Cuarto menguante
Sep 24
Nueva
Oct 1
Cuarto creciente

Extremos de hoy

Máximos del estado Bajos del estado

Community

WunderPhotos

Upload Photos

1,749,888 ¡fotos cargadas!

Nearby

Grosos de nieve

Estación Profundido Altura
No tenemos constancia de nieve nueva.

Actividad de terremotos

Ciudad Distance Mag. Tiempo y dato
No hay informes recientes de la actividad sísmica.
Magnitud mínima muestra es 2,5.

Temperaturas de aguas costeras

Lugar Temperatura
St Petersburg, FL 91.0 ° F
Old Port Tampa, FL 88.0 ° F
McKay Bay Entrance, FL 89.1 ° F

Estaciones meteorológicas cercanas